Time;durP1;ratioP1;P1;durP2;ratioP2;P2;SDS_P1;SDS_P2;PMS_P1;PMS_P2;Temp;Humidity;BMP_temperature;BMP_pressure;BME280_temperature;BME280_humidity;BME280_pressure;Samples;Min_cycle;Max_cycle;Signal;HPM_P1;HPM_P2
2022/11/21 00:00:41;;;;;;;44.25;25.38;;;4.00;99.90;;;;;;5051542;28;20800;-57
2022/11/21 00:03:10;;;;;;;38.72;23.15;;;4.10;99.90;;;;;;5052729;28;20420;-59
2022/11/21 00:05:40;;;;;;;42.53;23.80;;;4.00;99.90;;;;;;5052692;28;20892;-59
2022/11/21 00:08:08;;;;;;;42.15;21.88;;;4.00;99.90;;;;;;5052852;28;20487;-59
2022/11/21 00:10:36;;;;;;;40.08;22.27;;;4.10;99.90;;;;;;5052778;28;20888;-59
2022/11/21 00:13:03;;;;;;;37.10;22.13;;;4.00;99.90;;;;;;5052573;28;20429;-59
2022/11/21 00:15:34;;;;;;;38.75;22.35;;;4.10;99.90;;;;;;5052463;28;20792;-59
2022/11/21 00:18:03;;;;;;;40.67;22.42;;;4.00;99.90;;;;;;5052674;28;20507;-59
2022/11/21 00:20:30;;;;;;;39.88;22.77;;;4.10;99.90;;;;;;5052708;28;20414;-59
2022/11/21 00:22:57;;;;;;;36.47;22.00;;;4.00;99.90;;;;;;5052297;28;20935;-59
2022/11/21 00:25:23;;;;;;;42.28;24.10;;;4.00;99.90;;;;;;5052618;28;20807;-59
2022/11/21 00:27:52;;;;;;;44.28;24.50;;;4.00;99.90;;;;;;5052330;28;20421;-58
2022/11/21 00:30:18;;;;;;;42.08;24.55;;;4.00;99.90;;;;;;5052770;28;20413;-58
2022/11/21 00:32:46;;;;;;;44.25;23.92;;;3.60;99.90;;;;;;5052365;28;20482;-59
2022/11/21 00:35:13;;;;;;;48.75;25.25;;;3.60;99.90;;;;;;5052447;28;20421;-59
2022/11/21 00:37:40;;;;;;;48.15;24.60;;;3.40;99.90;;;;;;5051959;28;20448;-56
2022/11/21 00:40:07;;;;;;;45.45;24.25;;;3.40;99.90;;;;;;5052391;28;20436;-59
2022/11/21 00:42:34;;;;;;;41.30;21.98;;;3.50;99.90;;;;;;5052584;28;20409;-59
2022/11/21 00:45:01;;;;;;;41.00;22.50;;;3.60;99.90;;;;;;5052275;28;20412;-59
2022/11/21 00:47:28;;;;;;;45.10;23.15;;;3.60;99.90;;;;;;5051773;28;20413;-59
2022/11/21 00:49:56;;;;;;;54.63;25.73;;;3.50;99.90;;;;;;5052163;28;20413;-59
2022/11/21 00:52:22;;;;;;;54.13;26.25;;;3.20;99.90;;;;;;5051830;28;20414;-59
2022/11/21 00:54:49;;;;;;;54.42;25.08;;;3.20;99.90;;;;;;5051981;28;20417;-59
2022/11/21 00:57:15;;;;;;;52.55;25.88;;;3.30;99.90;;;;;;5051576;28;20432;-58
2022/11/21 00:59:42;;;;;;;63.03;26.33;;;3.40;99.90;;;;;;5052131;28;20510;-59
2022/11/21 01:02:09;;;;;;;72.15;27.98;;;3.20;99.90;;;;;;5051768;28;20483;-59
2022/11/21 01:04:36;;;;;;;90.03;29.50;;;3.10;99.90;;;;;;5051781;28;20830;-57
2022/11/21 01:07:04;;;;;;;63.67;28.55;;;3.10;99.90;;;;;;5051354;28;20421;-59
2022/11/21 01:09:31;;;;;;;78.43;28.65;;;3.30;99.90;;;;;;5051542;28;20463;-59
2022/11/21 01:11:58;;;;;;;87.93;31.23;;;3.30;99.90;;;;;;5051253;28;20890;-59
2022/11/21 01:14:25;;;;;;;92.90;30.98;;;3.30;99.90;;;;;;5051340;28;20429;-59
2022/11/21 01:16:51;;;;;;;100.45;32.63;;;3.50;99.90;;;;;;5051374;28;20421;-59
2022/11/21 01:19:18;;;;;;;128.85;33.70;;;3.50;99.90;;;;;;5051424;28;20417;-60
2022/11/21 01:21:44;;;;;;;109.07;32.83;;;3.30;99.90;;;;;;5051087;28;20488;-59
2022/11/21 01:24:13;;;;;;;76.18;31.48;;;3.50;99.90;;;;;;5051132;28;20413;-59
2022/11/21 01:26:39;;;;;;;84.85;32.20;;;3.70;99.90;;;;;;5051073;28;20957;-59
2022/11/21 01:29:07;;;;;;;91.63;31.00;;;3.70;99.90;;;;;;5051240;28;20413;-59
2022/11/21 01:31:34;;;;;;;111.20;32.53;;;3.60;99.90;;;;;;5051569;28;20425;-59
2022/11/21 01:34:01;;;;;;;66.35;28.73;;;3.80;99.90;;;;;;5051050;28;20475;-59
2022/11/21 01:36:29;;;;;;;93.65;31.05;;;3.90;99.90;;;;;;5050795;28;20409;-59
2022/11/21 01:38:58;;;;;;;104.22;32.30;;;3.60;99.90;;;;;;5050665;28;20796;-61
2022/11/21 01:41:30;;;;;;;68.22;30.30;;;3.60;99.90;;;;;;5051050;28;20421;-59
2022/11/21 01:43:56;;;;;;;56.50;28.15;;;3.40;99.90;;;;;;5050893;28;20894;-59
2022/11/21 01:46:24;;;;;;;62.83;28.63;;;3.50;99.90;;;;;;5050959;28;20409;-59
2022/11/21 01:48:56;;;;;;;65.38;28.58;;;3.30;99.90;;;;;;5050776;28;20831;-59
2022/11/21 01:51:28;;;;;;;58.87;27.43;;;3.30;99.90;;;;;;5050583;28;20892;-59
2022/11/21 01:54:00;;;;;;;59.00;27.85;;;3.40;99.90;;;;;;5050707;28;20460;-58
2022/11/21 01:56:29;;;;;;;71.65;29.42;;;3.40;99.90;;;;;;5050639;28;20413;-59
2022/11/21 01:58:59;;;;;;;63.15;28.77;;;3.30;99.90;;;;;;5050607;28;20487;-59
2022/11/21 02:01:27;;;;;;;68.50;29.65;;;3.50;99.90;;;;;;5050670;28;20892;-59
2022/11/21 02:03:56;;;;;;;72.13;30.63;;;3.40;99.90;;;;;;5050857;28;20413;-59
2022/11/21 02:06:24;;;;;;;65.35;28.58;;;3.30;99.90;;;;;;5050136;28;20440;-58
2022/11/21 02:08:51;;;;;;;67.20;30.90;;;3.40;99.90;;;;;;5050258;28;20459;-59
2022/11/21 02:11:26;;;;;;;70.32;30.98;;;3.50;99.90;;;;;;5050290;28;20409;-59
2022/11/21 02:13:55;;;;;;;68.43;30.55;;;3.50;99.90;;;;;;5050137;28;20421;-59
2022/11/21 02:16:23;;;;;;;64.90;30.55;;;3.50;99.90;;;;;;5049948;28;20413;-59
2022/11/21 02:18:49;;;;;;;61.83;28.95;;;3.40;99.90;;;;;;5050728;28;20409;-59
2022/11/21 02:21:23;;;;;;;62.63;28.73;;;3.50;99.90;;;;;;5050799;28;20722;-59
2022/11/21 02:23:55;;;;;;;75.38;32.78;;;3.60;99.90;;;;;;5049624;28;20409;-59
2022/11/21 02:26:23;;;;;;;70.00;32.47;;;3.30;99.90;;;;;;5050227;28;20421;-59
2022/11/21 02:28:50;;;;;;;69.32;30.85;;;3.50;99.90;;;;;;5050445;28;20413;-59
2022/11/21 02:31:17;;;;;;;72.13;30.67;;;3.70;99.90;;;;;;5050572;28;20789;-59
2022/11/21 02:33:44;;;;;;;75.50;32.08;;;3.60;99.90;;;;;;5050291;28;20981;-59
2022/11/21 02:36:35;;;;;;;70.45;31.70;;;3.60;99.90;;;;;;5050244;28;20895;-59
2022/11/21 02:39:02;;;;;;;73.65;31.45;;;3.50;99.90;;;;;;5049953;28;20418;-59
2022/11/21 02:41:32;;;;;;;74.57;32.15;;;3.50;99.90;;;;;;5050329;28;20471;-59
2022/11/21 02:44:05;;;;;;;78.65;31.90;;;3.60;99.90;;;;;;5049945;28;20410;-60
2022/11/21 02:46:34;;;;;;;87.07;33.97;;;3.60;99.90;;;;;;5050000;28;20421;-59
2022/11/21 02:49:06;;;;;;;81.93;32.78;;;3.40;99.90;;;;;;5049987;28;20413;-59
2022/11/21 02:51:33;;;;;;;74.18;32.63;;;3.60;99.90;;;;;;5050135;28;20410;-60
2022/11/21 02:53:59;;;;;;;74.35;31.60;;;3.60;99.90;;;;;;5050129;28;20501;-59
2022/11/21 02:56:26;;;;;;;84.13;33.97;;;3.70;99.90;;;;;;5050124;28;20792;-59
2022/11/21 02:58:54;;;;;;;76.00;32.60;;;3.70;99.90;;;;;;5050270;28;20799;-59
2022/11/21 03:01:21;;;;;;;60.47;30.17;;;3.80;99.90;;;;;;5049992;28;20838;-59
2022/11/21 03:03:47;;;;;;;69.30;30.83;;;3.90;99.90;;;;;;5049955;28;20413;-59
2022/11/21 03:06:14;;;;;;;62.67;28.95;;;3.90;99.90;;;;;;5049720;28;20421;-59
2022/11/21 03:08:40;;;;;;;65.85;29.02;;;3.90;99.90;;;;;;5050248;28;20424;-59
2022/11/21 03:11:07;;;;;;;86.15;30.15;;;3.80;99.90;;;;;;5050053;28;20413;-59
2022/11/21 03:13:34;;;;;;;98.35;32.58;;;3.70;99.90;;;;;;5050072;28;20459;-58
2022/11/21 03:16:02;;;;;;;130.32;34.58;;;3.50;99.90;;;;;;5049517;28;20418;-59
2022/11/21 03:18:28;;;;;;;140.27;34.97;;;3.40;99.90;;;;;;5050235;28;20451;-59
2022/11/21 03:20:57;;;;;;;164.88;37.80;;;3.40;99.90;;;;;;5049659;28;20467;-59
2022/11/21 03:23:23;;;;;;;119.85;35.78;;;3.20;99.90;;;;;;5050256;28;20483;-59
2022/11/21 03:25:50;;;;;;;102.47;33.10;;;3.40;99.90;;;;;;5049876;28;20416;-59
2022/11/21 03:28:17;;;;;;;130.57;34.17;;;3.50;99.90;;;;;;5050042;28;20491;-59
2022/11/21 03:30:43;;;;;;;293.25;39.50;;;3.60;99.90;;;;;;5049824;28;20420;-59
2022/11/21 03:33:12;;;;;;;207.90;37.17;;;3.40;99.90;;;;;;5049659;28;20471;-59
2022/11/21 03:35:38;;;;;;;136.05;35.97;;;3.40;99.90;;;;;;5053027;28;20417;-59
2022/11/21 03:38:05;;;;;;;213.95;38.00;;;3.40;99.90;;;;;;5053385;28;20436;-59
2022/11/21 03:40:32;;;;;;;144.48;34.00;;;3.50;99.90;;;;;;5053075;28;20491;-59
2022/11/21 03:43:04;;;;;;;159.07;35.03;;;3.60;99.90;;;;;;5053442;28;20405;-59
2022/11/21 03:45:30;;;;;;;162.32;34.13;;;3.70;99.90;;;;;;5052965;28;20436;-59
2022/11/21 03:47:57;;;;;;;131.03;32.67;;;3.70;99.90;;;;;;5052927;28;20417;-59
2022/11/21 03:50:25;;;;;;;119.05;34.17;;;3.80;99.90;;;;;;5053118;28;20421;-59
2022/11/21 03:52:52;;;;;;;230.07;36.83;;;3.80;99.90;;;;;;5053141;28;20459;-59
2022/11/21 03:55:18;;;;;;;171.43;35.05;;;3.80;99.90;;;;;;5052890;28;20421;-59
2022/11/21 03:57:45;;;;;;;92.55;32.13;;;3.70;99.90;;;;;;5052835;28;20421;-59
2022/11/21 04:00:13;;;;;;;116.07;32.78;;;3.80;99.90;;;;;;5053055;28;20413;-59
2022/11/21 04:02:40;;;;;;;101.20;31.97;;;3.90;99.90;;;;;;5052855;28;20444;-59
2022/11/21 04:05:07;;;;;;;107.80;31.35;;;3.90;99.90;;;;;;5053012;28;20413;-59
2022/11/21 04:07:35;;;;;;;95.25;31.67;;;4.00;99.90;;;;;;5052681;28;20424;-59
2022/11/21 04:10:01;;;;;;;81.07;31.30;;;3.90;99.90;;;;;;5052863;28;20467;-58
2022/11/21 04:12:28;;;;;;;133.38;33.47;;;4.00;99.90;;;;;;5052885;28;20451;-59
2022/11/21 04:14:55;;;;;;;95.70;31.73;;;3.90;99.90;;;;;;5052356;28;20429;-59
2022/11/21 04:17:22;;;;;;;86.65;31.77;;;4.00;99.90;;;;;;5052376;28;20418;-59
2022/11/21 04:19:48;;;;;;;85.82;32.35;;;4.00;99.90;;;;;;5052891;28;20464;-59
2022/11/21 04:22:15;;;;;;;91.82;33.78;;;3.70;99.90;;;;;;5052580;28;20417;-60
2022/11/21 04:24:43;;;;;;;97.32;35.08;;;3.60;99.90;;;;;;5052500;28;20414;-59
2022/11/21 04:27:10;;;;;;;77.88;31.83;;;3.70;99.90;;;;;;5052676;28;20424;-59
2022/11/21 04:29:36;;;;;;;70.80;31.02;;;3.80;99.90;;;;;;5052263;28;20471;-59
2022/11/21 04:32:03;;;;;;;68.28;29.42;;;4.00;99.90;;;;;;5052482;28;20421;-59
2022/11/21 04:34:29;;;;;;;72.93;30.75;;;4.00;99.90;;;;;;5052167;28;20981;-59
2022/11/21 04:36:56;;;;;;;75.45;31.13;;;4.00;99.90;;;;;;5052011;28;20413;-59
2022/11/21 04:39:23;;;;;;;80.15;30.23;;;4.00;99.90;;;;;;5052370;28;20417;-59
2022/11/21 04:41:51;;;;;;;92.75;30.80;;;4.10;99.90;;;;;;5052458;28;20476;-59
2022/11/21 04:44:17;;;;;;;116.07;31.33;;;4.20;99.90;;;;;;5051965;28;20459;-59
2022/11/21 04:46:44;;;;;;;152.48;33.05;;;4.20;99.90;;;;;;5051422;28;20417;-59
2022/11/21 04:49:11;;;;;;;236.48;37.25;;;3.90;99.90;;;;;;5052422;28;20413;-59
2022/11/21 04:51:37;;;;;;;305.90;40.75;;;3.90;99.90;;;;;;5051989;28;20421;-59
2022/11/21 04:54:04;;;;;;;215.27;37.92;;;3.80;99.90;;;;;;5051921;28;20495;-59
2022/11/21 04:56:31;;;;;;;130.13;35.83;;;4.00;99.90;;;;;;5052222;28;20823;-59
2022/11/21 04:58:59;;;;;;;362.67;40.65;;;4.10;99.90;;;;;;5051907;28;20776;-59
2022/11/21 05:01:25;;;;;;;370.23;42.47;;;4.10;99.90;;;;;;5051896;28;20425;-59
2022/11/21 05:03:52;;;;;;;306.15;42.95;;;4.00;99.90;;;;;;5051738;28;20416;-59
2022/11/21 05:06:19;;;;;;;197.18;39.58;;;3.80;99.90;;;;;;5051198;28;20466;-59
2022/11/21 05:08:46;;;;;;;404.02;43.90;;;3.90;99.90;;;;;;5051601;28;20417;-59
2022/11/21 05:13:58;;;;;;;601.15;52.20;;;3.80;99.90;;;;;;5051213;28;20432;-59
2022/11/21 05:16:25;;;;;;;429.80;45.58;;;3.50;99.90;;;;;;5051332;28;20467;-59
2022/11/21 05:18:51;;;;;;;511.13;50.00;;;3.60;99.90;;;;;;5051667;28;20463;-59
2022/11/21 05:21:18;;;;;;;246.00;42.72;;;3.50;99.90;;;;;;5051408;28;20417;-59
2022/11/21 05:23:45;;;;;;;259.90;41.28;;;3.60;99.90;;;;;;5051071;28;20921;-59
2022/11/21 05:26:11;;;;;;;153.98;34.58;;;3.80;99.90;;;;;;5051400;28;20478;-59
2022/11/21 05:28:38;;;;;;;120.88;32.97;;;4.00;99.90;;;;;;5051410;28;20475;-57
2022/11/21 05:31:06;;;;;;;95.93;32.57;;;4.00;99.90;;;;;;5051211;28;20820;-57
2022/11/21 05:33:33;;;;;;;124.63;35.17;;;4.20;99.90;;;;;;5050981;28;20429;-59
2022/11/21 05:35:59;;;;;;;101.07;32.93;;;4.10;99.90;;;;;;5051003;28;20491;-59
2022/11/21 05:38:26;;;;;;;133.93;35.22;;;4.20;99.90;;;;;;5050997;28;20409;-59
2022/11/21 05:40:53;;;;;;;145.07;36.42;;;4.00;99.90;;;;;;5051138;28;20409;-59
2022/11/21 05:46:03;;;;;;;110.83;33.80;;;4.10;99.90;;;;;;5050848;28;20871;-59
2022/11/21 05:48:33;;;;;;;85.25;30.75;;;4.20;99.90;;;;;;5050869;28;20413;-59
2022/11/21 05:50:59;;;;;;;74.90;27.60;;;4.30;99.90;;;;;;5048672;28;20425;-60
2022/11/21 05:53:26;;;;;;;83.60;28.90;;;4.50;99.90;;;;;;5049431;28;20417;-59
2022/11/21 05:55:53;;;;;;;284.53;39.87;;;4.20;99.90;;;;;;5050168;28;20464;-59
2022/11/21 05:58:19;;;;;;;132.52;35.28;;;3.80;99.90;;;;;;5050084;28;20475;-58
2022/11/21 06:00:46;;;;;;;126.65;35.88;;;3.90;99.90;;;;;;5050135;28;20413;-60
2022/11/21 06:03:27;;;;;;;113.97;34.73;;;4.00;99.90;;;;;;5050534;28;20862;-60
2022/11/21 06:06:01;;;;;;;106.68;32.72;;;4.10;99.90;;;;;;5050096;28;20970;-60
2022/11/21 06:08:29;;;;;;;75.28;28.90;;;4.30;99.90;;;;;;5050693;28;20467;-60
2022/11/21 06:10:55;;;;;;;88.68;30.83;;;4.40;99.90;;;;;;5049993;28;20919;-60
2022/11/21 06:13:22;;;;;;;95.63;31.02;;;4.30;99.90;;;;;;5050317;28;20413;-60
2022/11/21 06:15:51;;;;;;;80.13;29.58;;;4.40;99.90;;;;;;5049478;28;20456;-61
2022/11/21 06:18:17;;;;;;;74.95;28.95;;;4.50;99.90;;;;;;5050669;28;20425;-58
2022/11/21 06:20:44;;;;;;;78.50;28.42;;;4.50;99.90;;;;;;5049867;28;20926;-61
2022/11/21 06:23:12;;;;;;;81.18;29.30;;;4.40;99.90;;;;;;5049903;28;20492;-60
2022/11/21 06:25:39;;;;;;;58.83;24.33;;;4.40;99.90;;;;;;5049906;28;20409;-60
2022/11/21 06:28:05;;;;;;;60.08;24.70;;;4.50;99.90;;;;;;5050137;28;20417;-60
2022/11/21 06:30:33;;;;;;;54.00;24.00;;;4.60;99.90;;;;;;5049734;28;20413;-60
2022/11/21 06:32:59;;;;;;;49.42;22.70;;;4.60;99.90;;;;;;5050297;28;20421;-58
2022/11/21 06:35:26;;;;;;;52.40;22.48;;;4.50;99.90;;;;;;5050343;28;20487;-62
2022/11/21 06:37:52;;;;;;;42.00;19.75;;;4.60;99.90;;;;;;5049710;28;20417;-60
2022/11/21 06:40:20;;;;;;;43.03;19.90;;;4.70;99.90;;;;;;5050052;28;20471;-61
2022/11/21 06:42:47;;;;;;;48.10;20.85;;;4.70;99.90;;;;;;5049570;28;20421;-59
2022/11/21 06:45:14;;;;;;;42.65;19.73;;;4.80;99.90;;;;;;5049968;28;20421;-60
2022/11/21 06:47:41;;;;;;;37.97;19.23;;;4.70;99.90;;;;;;5047108;28;20986;-59
2022/11/21 06:50:08;;;;;;;41.38;19.80;;;4.80;99.90;;;;;;5050130;28;20803;-59
2022/11/21 06:52:35;;;;;;;67.88;25.65;;;4.80;99.90;;;;;;5049285;28;20950;-59
2022/11/21 06:55:02;;;;;;;68.85;26.88;;;4.30;99.90;;;;;;5050104;28;20463;-59
2022/11/21 06:57:31;;;;;;;91.45;27.63;;;4.40;99.90;;;;;;5048914;28;20425;-58
2022/11/21 06:59:58;;;;;;;78.40;28.52;;;4.10;99.90;;;;;;5050207;28;20421;-59
2022/11/21 07:02:26;;;;;;;78.78;28.58;;;4.20;99.90;;;;;;5049673;28;20962;-57
2022/11/21 07:04:52;;;;;;;91.30;30.17;;;4.30;99.90;;;;;;5049985;28;20422;-58
2022/11/21 07:07:19;;;;;;;100.07;30.80;;;4.00;99.90;;;;;;5049671;28;20447;-59
2022/11/21 07:09:46;;;;;;;105.60;30.48;;;3.90;99.90;;;;;;5051528;28;20422;-58
2022/11/21 07:14:59;;;;;;;92.43;30.23;;;3.80;99.90;;;;;;5053263;28;20492;-59
2022/11/21 07:17:26;;;;;;;90.57;30.05;;;4.00;99.90;;;;;;5053321;28;20471;-58
2022/11/21 07:19:52;;;;;;;105.05;33.63;;;3.80;99.90;;;;;;5053167;28;20421;-57
2022/11/21 07:22:19;;;;;;;92.63;31.92;;;3.80;99.90;;;;;;5053466;28;20428;-58
2022/11/21 07:24:46;;;;;;;91.75;31.10;;;4.00;99.90;;;;;;5042856;28;20492;-60
2022/11/21 07:27:13;;;;;;;99.30;32.30;;;4.10;99.90;;;;;;5051499;28;20880;-62
2022/11/21 07:29:39;;;;;;;89.53;31.60;;;4.30;99.90;;;;;;5052375;28;20942;-61
2022/11/21 07:32:07;;;;;;;66.88;28.00;;;4.60;99.90;;;;;;5052887;28;20892;-58
2022/11/21 07:34:34;;;;;;;55.75;25.63;;;4.80;99.90;;;;;;5052296;28;20421;-58
2022/11/21 07:37:01;;;;;;;48.55;24.17;;;5.40;99.90;;;;;;5052380;28;20417;-58
2022/11/21 07:39:27;;;;;;;49.33;24.02;;;4.90;99.90;;;;;;5053323;28;20479;-58
2022/11/21 07:41:55;;;;;;;52.55;24.60;;;4.90;99.90;;;;;;5051765;28;20699;-58
2022/11/21 07:44:21;;;;;;;57.33;26.10;;;4.60;99.90;;;;;;5051498;28;20417;-58
2022/11/21 07:46:48;;;;;;;56.95;26.10;;;4.70;99.90;;;;;;5052077;28;20479;-59
2022/11/21 07:49:16;;;;;;;57.10;25.75;;;4.60;99.90;;;;;;5052822;28;20410;-59
2022/11/21 07:51:43;;;;;;;55.65;25.20;;;5.00;99.90;;;;;;5051868;28;20410;-59
2022/11/21 07:54:10;;;;;;;51.17;24.52;;;4.80;99.90;;;;;;5052022;28;20425;-59
2022/11/21 07:56:36;;;;;;;55.10;25.75;;;4.80;99.90;;;;;;5052230;28;20801;-58
2022/11/21 07:59:03;;;;;;;52.30;24.10;;;4.80;99.90;;;;;;5052353;28;20417;-59
2022/11/21 08:01:30;;;;;;;55.43;25.70;;;4.90;99.90;;;;;;5052397;28;20425;-59
2022/11/21 08:03:56;;;;;;;50.05;23.40;;;4.80;99.90;;;;;;5051701;28;20420;-58
2022/11/21 08:06:24;;;;;;;51.47;23.33;;;4.80;99.90;;;;;;5051821;28;20413;-58
2022/11/21 08:08:52;;;;;;;55.65;23.85;;;4.90;99.90;;;;;;5052035;28;20421;-58
2022/11/21 08:11:19;;;;;;;58.28;24.80;;;4.70;99.90;;;;;;5052315;28;20421;-59
2022/11/21 08:13:46;;;;;;;53.35;25.17;;;4.70;99.90;;;;;;5051342;28;20831;-59
2022/11/21 08:16:12;;;;;;;54.92;24.52;;;4.80;99.90;;;;;;5051569;28;20433;-60
2022/11/21 08:18:39;;;;;;;60.67;25.17;;;4.60;99.90;;;;;;5051776;28;20936;-60
2022/11/21 08:21:06;;;;;;;56.38;24.23;;;4.80;99.90;;;;;;5050453;28;20413;-61
2022/11/21 08:23:34;;;;;;;58.22;24.63;;;4.80;99.90;;;;;;5052234;28;20417;-60
2022/11/21 08:26:01;;;;;;;55.73;24.97;;;4.80;99.90;;;;;;5031518;28;20414;-60
2022/11/21 08:28:28;;;;;;;51.03;24.60;;;4.90;99.90;;;;;;5032186;28;20916;-61
2022/11/21 08:30:54;;;;;;;51.25;23.42;;;5.00;99.90;;;;;;5035638;28;20440;-60
2022/11/21 08:33:21;;;;;;;57.35;25.17;;;5.10;99.90;;;;;;5051546;28;20428;-61
2022/11/21 08:35:48;;;;;;;56.28;24.33;;;5.00;99.90;;;;;;5051231;28;20445;-58
2022/11/21 08:38:14;;;;;;;59.08;25.98;;;5.10;99.90;;;;;;5051837;28;20421;-57
2022/11/21 08:40:42;;;;;;;59.07;25.17;;;5.00;99.90;;;;;;5051882;28;20497;-58
2022/11/21 08:43:09;;;;;;;67.40;26.15;;;5.00;99.90;;;;;;5051294;28;20424;-58
2022/11/21 08:45:38;;;;;;;69.35;26.58;;;4.90;99.90;;;;;;5050933;28;20831;-60
2022/11/21 08:48:09;;;;;;;69.50;27.05;;;4.90;99.90;;;;;;5050815;28;20796;-60
2022/11/21 08:50:35;;;;;;;64.43;25.43;;;4.80;99.90;;;;;;5051665;28;20417;-58
2022/11/21 08:53:03;;;;;;;64.10;25.60;;;5.00;99.90;;;;;;5051065;28;20417;-58
2022/11/21 08:55:30;;;;;;;62.20;25.20;;;5.20;99.90;;;;;;5051039;28;20430;-60
2022/11/21 08:57:58;;;;;;;64.37;25.53;;;5.30;99.90;;;;;;5051043;28;20413;-58
2022/11/21 09:00:25;;;;;;;66.40;26.13;;;5.30;99.90;;;;;;5049136;28;20420;-58
2022/11/21 09:02:52;;;;;;;67.38;25.58;;;5.40;99.90;;;;;;5043000;28;21287;-58
2022/11/21 09:05:18;;;;;;;68.50;26.98;;;5.50;99.90;;;;;;5050276;28;20460;-58
2022/11/21 09:07:45;;;;;;;81.38;28.35;;;5.50;99.90;;;;;;5051060;28;20475;-59
2022/11/21 09:10:12;;;;;;;90.93;28.77;;;5.40;99.90;;;;;;5050791;28;20475;-59
2022/11/21 09:12:38;;;;;;;91.65;28.83;;;5.20;99.90;;;;;;5050880;28;20420;-60
2022/11/21 09:18:06;;;;;;;102.25;31.10;;;5.30;99.90;;;;;;5050940;28;20994;-59
2022/11/21 09:20:39;;;;;;;104.22;30.40;;;5.10;99.90;;;;;;5050545;28;20425;-59
2022/11/21 09:23:07;;;;;;;101.82;32.03;;;5.30;99.90;;;;;;5050616;28;20413;-61
2022/11/21 09:25:34;;;;;;;110.32;31.10;;;5.30;99.90;;;;;;5050029;28;20491;-60
2022/11/21 09:28:01;;;;;;;95.88;30.42;;;5.30;99.90;;;;;;5050598;28;20496;-60
2022/11/21 09:30:29;;;;;;;95.00;28.88;;;5.50;99.90;;;;;;5050545;28;20413;-59
2022/11/21 09:33:00;;;;;;;103.28;31.48;;;5.40;99.90;;;;;;5050480;28;20417;-61
2022/11/21 09:35:27;;;;;;;94.75;30.08;;;5.40;99.90;;;;;;5050375;28;20876;-62
2022/11/21 09:37:54;;;;;;;111.60;31.10;;;5.50;99.90;;;;;;5049771;28;20418;-60
2022/11/21 09:40:22;;;;;;;100.82;30.38;;;5.40;99.90;;;;;;5050701;28;20417;-61
2022/11/21 09:43:10;;;;;;;103.97;31.27;;;5.60;99.90;;;;;;5049972;28;20417;-60
2022/11/21 09:45:45;;;;;;;100.75;31.10;;;5.40;99.90;;;;;;5039518;28;20421;-57
2022/11/21 09:48:15;;;;;;;107.50;31.20;;;5.70;99.90;;;;;;5049076;28;20519;-59
2022/11/21 09:50:46;;;;;;;86.18;29.67;;;5.70;99.90;;;;;;5048062;28;20417;-61
2022/11/21 09:53:18;;;;;;;92.43;30.02;;;5.80;99.90;;;;;;5050014;28;20766;-57
2022/11/21 09:55:48;;;;;;;85.93;29.00;;;5.70;99.90;;;;;;5050047;28;20425;-61
2022/11/21 09:58:25;;;;;;;87.30;28.23;;;5.90;99.90;;;;;;5050010;28;20494;-62
2022/11/21 10:00:54;;;;;;;88.35;29.25;;;5.90;99.90;;;;;;5049807;28;20448;-61
2022/11/21 10:03:23;;;;;;;81.07;29.23;;;6.00;99.90;;;;;;5050316;28;20453;-60
2022/11/21 10:05:54;;;;;;;93.00;29.73;;;5.80;99.90;;;;;;5047668;28;20417;-60
2022/11/21 10:08:33;;;;;;;84.38;29.38;;;6.00;99.90;;;;;;5049153;28;20417;-59
2022/11/21 10:11:11;;;;;;;75.55;28.50;;;6.10;99.90;;;;;;5040131;28;20421;-59
2022/11/21 10:13:49;;;;;;;76.68;28.60;;;6.20;99.90;;;;;;5049676;28;20440;-57
2022/11/21 10:16:23;;;;;;;86.03;31.20;;;6.10;99.90;;;;;;5048962;28;20523;-64
2022/11/21 10:19:14;;;;;;;63.58;27.83;;;6.20;99.90;;;;;;5046522;28;20900;-60
2022/11/21 10:22:06;;;;;;;81.70;29.95;;;6.10;99.90;;;;;;5049473;28;20425;-63
2022/11/21 10:24:43;;;;;;;84.13;30.15;;;6.20;99.90;;;;;;5049650;28;20447;-62
2022/11/21 10:27:15;;;;;;;86.40;31.73;;;6.10;99.90;;;;;;5049429;28;20413;-63
2022/11/21 10:29:46;;;;;;;74.45;30.23;;;6.30;99.90;;;;;;5049378;28;20413;-65
2022/11/21 10:32:22;;;;;;;65.78;28.08;;;6.50;99.90;;;;;;5049121;28;20424;-59
2022/11/21 10:34:50;;;;;;;56.40;26.45;;;6.70;99.90;;;;;;5046725;28;20419;-60
2022/11/21 10:37:27;;;;;;;58.60;27.27;;;6.70;99.90;;;;;;5049428;28;20939;-62
2022/11/21 10:39:56;;;;;;;68.05;29.88;;;6.60;99.90;;;;;;5049078;28;20421;-62
2022/11/21 10:42:32;;;;;;;60.88;27.05;;;6.70;99.90;;;;;;5049721;28;20972;-61
2022/11/21 10:45:18;;;;;;;53.42;25.42;;;6.90;99.90;;;;;;5050428;28;20420;-64
2022/11/21 10:47:47;;;;;;;60.03;28.20;;;6.70;99.90;;;;;;5053602;28;20405;-63
2022/11/21 10:50:41;;;;;;;60.30;27.23;;;6.50;99.90;;;;;;5051474;28;20417;-66
2022/11/21 10:56:02;;;;;;;61.90;28.45;;;6.40;99.90;;;;;;5045523;28;20420;-60
2022/11/21 10:58:45;;;;;;;54.83;26.50;;;6.50;99.90;;;;;;5054335;28;20425;-62
2022/11/21 11:01:27;;;;;;;56.17;26.48;;;6.50;99.90;;;;;;5046673;28;20432;-60
2022/11/21 11:04:25;;;;;;;48.35;24.95;;;6.60;99.90;;;;;;5054558;28;20417;-61
2022/11/21 11:06:52;;;;;;;50.92;26.15;;;6.80;99.90;;;;;;4972734;28;20407;-60
2022/11/21 11:09:28;;;;;;;46.90;25.00;;;6.90;99.90;;;;;;5035985;28;20429;-60
2022/11/21 11:12:22;;;;;;;46.15;24.48;;;7.00;99.90;;;;;;5043459;28;20424;-63
2022/11/21 11:14:55;;;;;;;46.05;24.02;;;6.90;99.90;;;;;;5053626;28;20452;-64
2022/11/21 11:17:29;;;;;;;42.70;22.33;;;6.90;99.90;;;;;;5052978;28;20421;-62
2022/11/21 11:20:04;;;;;;;47.83;23.50;;;6.80;99.90;;;;;;5054413;28;20892;-60
2022/11/21 11:22:31;;;;;;;39.80;23.38;;;6.80;99.90;;;;;;5050703;28;21061;-59
2022/11/21 11:24:57;;;;;;;42.85;23.67;;;6.90;99.90;;;;;;5050633;28;20417;-58
2022/11/21 11:27:27;;;;;;;42.00;22.65;;;6.80;99.90;;;;;;5052469;28;20416;-59
2022/11/21 11:29:54;;;;;;;36.38;19.83;;;6.90;99.90;;;;;;5052746;28;20816;-59
2022/11/21 11:32:21;;;;;;;35.20;19.60;;;6.90;99.90;;;;;;5052808;28;20761;-62
2022/11/21 11:34:57;;;;;;;31.92;19.23;;;7.00;99.90;;;;;;5052229;28;20426;-66
2022/11/21 11:37:34;;;;;;;35.83;19.40;;;7.00;99.90;;;;;;5052757;28;20532;-63
2022/11/21 11:40:14;;;;;;;30.35;19.00;;;7.00;99.90;;;;;;5052533;28;20819;-62
2022/11/21 11:49:00;;;;;;;30.00;18.10;;;7.00;99.90;;;;;;5051719;28;20489;-62
2022/11/21 11:51:32;;;;;;;28.40;16.50;;;6.90;99.90;;;;;;5050325;28;20424;-58
2022/11/21 11:54:07;;;;;;;30.52;16.58;;;7.00;99.90;;;;;;5042369;28;20418;-59
2022/11/21 11:56:37;;;;;;;27.95;17.17;;;7.10;99.90;;;;;;5051681;28;20429;-59
2022/11/21 11:59:12;;;;;;;27.27;17.63;;;6.90;99.90;;;;;;5052728;28;20498;-63
2022/11/21 12:01:43;;;;;;;24.30;16.35;;;7.20;99.90;;;;;;5052005;28;20903;-60
2022/11/21 12:04:13;;;;;;;22.05;15.32;;;7.40;99.90;;;;;;5052735;28;20508;-62
2022/11/21 12:06:46;;;;;;;25.73;16.02;;;7.40;99.90;;;;;;5051899;28;20420;-61
2022/11/21 12:09:21;;;;;;;25.48;15.98;;;7.20;99.90;;;;;;5052628;28;20770;-61
2022/11/21 12:12:10;;;;;;;26.20;15.60;;;7.40;99.90;;;;;;5052485;28;20417;-61
2022/11/21 12:17:42;;;;;;;24.13;15.45;;;7.30;99.90;;;;;;5051890;28;20436;-58
2022/11/21 12:20:19;;;;;;;25.23;15.50;;;7.40;99.90;;;;;;5052374;28;20488;-61
2022/11/21 12:22:49;;;;;;;23.77;14.57;;;7.50;99.90;;;;;;5052129;28;20486;-59
2022/11/21 12:25:19;;;;;;;22.67;14.93;;;7.20;99.90;;;;;;5052540;28;20773;-60
2022/11/21 12:27:51;;;;;;;24.98;14.80;;;7.10;99.90;;;;;;5052013;28;20880;-58
2022/11/21 12:30:44;;;;;;;22.10;14.48;;;7.10;99.90;;;;;;5052434;28;20420;-61
2022/11/21 12:33:20;;;;;;;23.30;14.70;;;7.10;99.90;;;;;;5052093;28;20416;-56
2022/11/21 12:36:14;;;;;;;20.17;13.73;;;7.10;99.90;;;;;;5052228;28;20496;-58
2022/11/21 12:39:03;;;;;;;23.38;13.63;;;7.20;99.90;;;;;;5051505;28;20416;-58
2022/11/21 12:44:36;;;;;;;21.30;15.00;;;7.10;99.90;;;;;;5051573;28;20409;-56
2022/11/21 12:47:25;;;;;;;24.88;13.75;;;7.30;99.90;;;;;;5051875;28;20409;-57
2022/11/21 12:55:37;;;;;;;22.27;14.02;;;7.40;99.90;;;;;;5051333;28;20420;-59
2022/11/21 12:58:22;;;;;;;22.63;14.43;;;7.60;99.90;;;;;;5051660;28;20425;-60
2022/11/21 13:00:59;;;;;;;22.23;15.02;;;7.50;99.90;;;;;;5051419;28;20835;-60
2022/11/21 13:03:38;;;;;;;21.83;13.02;;;7.60;99.90;;;;;;5051960;28;20467;-58
2022/11/21 13:06:12;;;;;;;17.63;12.77;;;7.70;99.90;;;;;;5050813;28;20467;-58
2022/11/21 13:08:40;;;;;;;23.45;13.80;;;7.70;99.90;;;;;;5051138;28;20420;-58
2022/11/21 13:14:07;;;;;;;19.58;12.48;;;8.00;99.90;;;;;;5051526;28;20408;-56
2022/11/21 13:16:38;;;;;;;20.30;12.18;;;7.90;99.90;;;;;;5050521;28;20429;-56
2022/11/21 13:19:17;;;;;;;17.67;12.23;;;8.10;99.90;;;;;;5051502;28;20492;-58
2022/11/21 13:21:47;;;;;;;17.00;11.23;;;8.20;99.90;;;;;;5040023;28;20424;-57